Time;durP1;ratioP1;P1;durP2;ratioP2;P2;SDS_P1;SDS_P2;PMS_P1;PMS_P2;Temp;Humidity;BMP_temperature;BMP_pressure;BME280_temperature;BME280_humidity;BME280_pressure;Samples;Min_cycle;Max_cycle;Signal;HPM_P1;HPM_P2
2023/10/02 00:01:19;;;;;;;6.20;3.17;;;15.30;99.90;;;14.66;100.00;101597.66;4203859;28;20149;-77
2023/10/02 00:03:21;;;;;;;9.82;4.05;;;15.20;99.90;;;14.66;100.00;101595.00;4202985;28;20029;-77
2023/10/02 00:05:40;;;;;;;4.03;2.17;;;15.20;99.90;;;14.69;100.00;101598.16;4204086;28;20033;-77
2023/10/02 00:07:45;;;;;;;3.47;2.05;;;15.30;99.90;;;14.70;100.00;101593.66;4200598;28;20396;-77
2023/10/02 00:09:49;;;;;;;10.02;3.45;;;15.30;99.90;;;14.71;100.00;101598.81;4204079;28;20462;-77
2023/10/02 00:11:49;;;;;;;;;;;15.30;99.90;;;14.70;100.00;101597.16;4204483;28;20036;-77
2023/10/02 00:14:18;;;;;;;4.93;2.90;;;15.30;99.90;;;14.73;100.00;101598.66;4203884;28;19930;-77
2023/10/02 00:16:11;;;;;;;7.43;2.80;;;15.30;99.90;;;14.68;100.00;101583.22;4203877;28;20056;-77
2023/10/02 00:18:16;;;;;;;5.65;2.80;;;15.30;99.90;;;14.68;100.00;101593.00;4202423;28;20040;-77
2023/10/02 00:20:22;;;;;;;7.75;3.20;;;15.30;99.90;;;14.66;100.00;101593.19;4204017;28;20060;-77
2023/10/02 00:22:43;;;;;;;8.00;3.50;;;15.30;99.90;;;14.66;100.00;101589.69;4203411;28;20021;-77
2023/10/02 00:24:47;;;;;;;8.02;3.60;;;15.30;99.90;;;14.63;100.00;101582.03;4203786;28;20033;-77
2023/10/02 00:26:48;;;;;;;7.03;3.28;;;15.20;99.90;;;14.60;100.00;101592.97;4202526;28;20029;-77
2023/10/02 00:28:49;;;;;;;7.82;3.78;;;15.20;99.90;;;14.54;100.00;101586.50;4203562;28;20043;-78
2023/10/02 00:30:51;;;;;;;8.35;3.63;;;15.20;99.90;;;14.52;100.00;101595.59;4203730;28;20017;-78
2023/10/02 00:32:52;;;;;;;7.07;3.60;;;15.20;99.90;;;14.51;100.00;101593.94;4203467;28;20039;-78
2023/10/02 00:34:53;;;;;;;6.90;3.92;;;15.20;99.90;;;14.49;100.00;101603.88;4201872;28;20021;-77
2023/10/02 00:36:54;;;;;;;7.22;3.45;;;15.10;99.90;;;14.45;100.00;101599.91;4186609;28;20029;-78
2023/10/02 00:39:24;;;;;;;11.95;4.80;;;15.10;99.90;;;14.45;100.00;101594.59;4185810;28;20475;-77
2023/10/02 00:41:18;;;;;;;8.15;3.80;;;15.10;99.90;;;14.40;100.00;101587.94;4199644;28;20029;-78
2023/10/02 00:43:52;;;;;;;7.07;3.97;;;15.00;99.90;;;14.43;100.00;101591.25;4187531;28;20029;-77
2023/10/02 00:45:50;;;;;;;6.22;3.05;;;15.00;99.90;;;14.40;100.00;101587.94;4201354;28;20043;-77
2023/10/02 00:47:53;;;;;;;7.15;3.90;;;15.00;99.90;;;14.37;100.00;101587.41;4202339;28;20117;-78
2023/10/02 00:50:06;;;;;;;7.45;3.42;;;15.00;99.90;;;14.35;100.00;101592.06;4203420;28;20455;-77
2023/10/02 00:52:08;;;;;;;5.25;3.25;;;15.00;99.90;;;14.31;100.00;101588.00;4203206;28;20020;-77
2023/10/02 00:54:27;;;;;;;6.25;3.17;;;14.90;99.90;;;14.31;100.00;101594.16;4202146;28;20060;-77
2023/10/02 00:56:28;;;;;;;4.95;3.05;;;14.90;99.90;;;14.28;100.00;101583.84;4202255;28;20427;-77
2023/10/02 00:58:29;;;;;;;8.07;2.80;;;14.90;99.90;;;14.25;100.00;101578.03;4203348;28;20043;-77
2023/10/02 01:00:36;;;;;;;6.22;3.08;;;14.90;99.90;;;14.28;100.00;101583.84;4203279;28;20020;-77
2023/10/02 01:02:39;;;;;;;8.25;3.42;;;14.90;99.90;;;14.27;100.00;101592.84;4203220;28;20036;-77
2023/10/02 01:04:40;;;;;;;7.15;3.10;;;14.90;99.90;;;14.23;100.00;101583.50;4203353;28;20052;-77
2023/10/02 01:09:04;;;;;;;5.05;2.83;;;14.90;99.90;;;14.20;100.00;101586.47;4199771;28;20454;-77
2023/10/02 01:11:06;;;;;;;4.97;2.80;;;14.80;99.90;;;14.22;100.00;101589.81;4201849;28;20024;-78
2023/10/02 01:13:06;;;;;;;6.70;3.28;;;14.80;99.90;;;14.22;100.00;101584.50;4196458;28;20053;-78
2023/10/02 01:15:11;;;;;;;5.05;3.03;;;14.80;99.90;;;14.20;100.00;101581.19;4186404;28;20036;-78
2023/10/02 01:17:14;;;;;;;4.55;2.90;;;14.80;99.90;;;14.19;100.00;101582.16;4186195;28;20047;-78
2023/10/02 01:19:16;;;;;;;4.80;3.00;;;14.80;99.90;;;14.19;100.00;101584.81;4185421;28;20029;-78
2023/10/02 01:21:24;;;;;;;4.15;2.70;;;14.80;99.90;;;14.15;100.00;101583.50;4168335;28;20022;-77
2023/10/02 01:23:27;;;;;;;8.07;2.30;;;14.80;99.90;;;14.14;100.00;101584.47;4195546;28;20039;-77
2023/10/02 01:25:28;;;;;;;5.47;2.20;;;14.80;99.90;;;14.13;100.00;101581.94;4184976;28;20025;-78
2023/10/02 01:27:40;;;;;;;8.07;2.58;;;14.70;99.90;;;14.12;100.00;101582.97;4186339;28;20255;-78
2023/10/02 01:29:42;;;;;;;4.60;2.55;;;14.70;99.90;;;14.09;100.00;101573.50;4186339;28;20049;-77
2023/10/02 01:31:44;;;;;;;4.80;2.47;;;14.70;99.90;;;14.10;100.00;101574.31;4185028;28;20025;-77
2023/10/02 01:33:45;;;;;;;5.15;2.17;;;14.70;99.90;;;14.08;100.00;101565.69;4186018;28;20021;-78
2023/10/02 01:35:55;;;;;;;8.88;3.63;;;14.70;99.90;;;14.11;100.00;101566.22;4188017;28;20028;-78
2023/10/02 01:37:56;;;;;;;4.03;2.40;;;14.70;99.90;;;14.08;100.00;101560.38;4186285;28;20028;-78
2023/10/02 01:40:28;;;;;;;3.13;2.15;;;14.70;99.90;;;14.08;100.00;101547.94;4185877;28;20091;-78
2023/10/02 01:42:17;;;;;;;4.90;2.97;;;14.70;99.90;;;14.08;100.00;101566.53;4184842;28;20040;-78
2023/10/02 01:44:22;;;;;;;6.25;2.72;;;14.70;99.90;;;14.03;100.00;101555.56;4194914;28;20036;-78
2023/10/02 01:46:25;;;;;;;3.72;2.25;;;14.70;99.90;;;14.02;100.00;101555.72;4200552;28;20103;-77
2023/10/02 01:48:37;;;;;;;5.72;2.42;;;14.70;99.90;;;14.00;100.00;101553.22;4201405;28;20024;-78
2023/10/02 01:50:38;;;;;;;2.97;1.90;;;14.70;99.90;;;14.01;100.00;101554.88;4201127;28;20017;-78
2023/10/02 01:52:39;;;;;;;5.70;2.50;;;14.70;99.90;;;14.04;100.00;101553.72;4202196;28;20377;-78
2023/10/02 01:54:40;;;;;;;5.45;3.00;;;14.60;99.90;;;14.00;100.00;101545.28;4202188;28;20035;-78
2023/10/02 01:56:45;;;;;;;3.95;2.55;;;14.60;99.90;;;14.04;100.00;101543.09;4200953;28;20021;-78
2023/10/02 01:58:50;;;;;;;4.63;2.55;;;14.60;99.90;;;14.01;100.00;101538.97;4201194;28;20016;-78
2023/10/02 02:00:51;;;;;;;6.25;2.85;;;14.70;99.90;;;14.01;100.00;101541.59;4201151;28;20032;-77
2023/10/02 02:03:14;;;;;;;5.03;2.58;;;14.60;99.90;;;13.97;100.00;101537.63;4200794;28;20028;-78
2023/10/02 02:05:14;;;;;;;4.13;2.42;;;14.60;99.90;;;13.92;100.00;101537.25;4215197;28;20035;-78
2023/10/02 02:07:20;;;;;;;6.88;3.10;;;14.60;99.90;;;13.92;100.00;101539.91;4200655;28;20028;-78
2023/10/02 02:09:26;;;;;;;4.18;2.45;;;14.60;99.90;;;13.92;100.00;101539.09;4202053;28;20078;-78
2023/10/02 02:11:34;;;;;;;4.55;2.60;;;14.60;99.90;;;13.89;100.00;101534.13;4201069;28;20059;-78
2023/10/02 02:13:44;;;;;;;3.20;2.20;;;14.50;99.90;;;13.89;100.00;101528.81;4201009;28;20107;-78
2023/10/02 02:16:06;;;;;;;4.68;2.70;;;14.50;99.90;;;13.89;100.00;101528.81;4201918;28;20032;-78
2023/10/02 02:18:07;;;;;;;4.25;2.45;;;14.50;99.90;;;13.86;100.00;101517.50;4203009;28;20486;-78
2023/10/02 02:20:11;;;;;;;4.43;2.33;;;14.50;99.90;;;13.89;100.00;101521.66;4200926;28;20034;-78
2023/10/02 02:22:12;;;;;;;4.75;2.33;;;14.50;99.90;;;13.88;100.00;101522.66;4201310;28;20078;-78
2023/10/02 02:24:13;;;;;;;5.13;2.72;;;14.50;99.90;;;13.88;100.00;101516.53;4185626;28;20029;-77
2023/10/02 02:26:22;;;;;;;6.35;2.78;;;14.50;99.90;;;13.85;100.00;101510.56;4185439;28;20029;-77
2023/10/02 02:28:23;;;;;;;3.13;2.33;;;14.50;99.90;;;13.83;100.00;101509.03;4185345;28;20031;-78
2023/10/02 02:30:24;;;;;;;4.70;3.15;;;14.50;99.90;;;13.84;100.00;101505.41;4185398;28;20024;-78
2023/10/02 02:32:52;;;;;;;4.70;2.78;;;14.50;99.90;;;13.83;100.00;101507.22;4185385;28;20040;-77
2023/10/02 02:35:00;;;;;;;3.00;2.08;;;14.50;99.90;;;13.84;100.00;101502.75;4187025;28;20033;-78
2023/10/02 02:37:01;;;;;;;5.53;3.55;;;14.40;99.90;;;13.84;100.00;101494.78;4185673;28;20104;-78
2023/10/02 02:39:22;;;;;;;8.52;2.75;;;14.50;99.90;;;13.83;100.00;101493.13;4185265;28;20049;-78
2023/10/02 02:41:23;;;;;;;4.72;2.58;;;14.50;99.90;;;13.84;100.00;101489.47;4180988;28;20053;-78
2023/10/02 02:43:24;;;;;;;5.88;2.72;;;14.50;99.90;;;13.87;100.00;101489.16;4199099;28;20074;-78
2023/10/02 02:45:28;;;;;;;5.10;2.53;;;14.50;99.90;;;13.90;100.00;101482.72;4185237;28;20075;-78
2023/10/02 02:47:51;;;;;;;5.38;2.10;;;14.50;99.90;;;13.90;100.00;101494.16;4189732;28;20098;-78
2023/10/02 02:49:52;;;;;;;2.92;2.20;;;14.50;99.90;;;13.86;100.00;101483.03;4184981;28;20093;-78
2023/10/02 02:51:55;;;;;;;5.13;2.20;;;14.50;99.90;;;13.85;100.00;101486.69;4183838;28;20029;-78
2023/10/02 02:53:56;;;;;;;4.03;2.17;;;14.50;99.90;;;13.82;100.00;101483.53;4185324;28;20040;-78
2023/10/02 02:56:17;;;;;;;3.88;2.35;;;14.50;99.90;;;13.78;100.00;101479.50;4185156;28;20025;-77
2023/10/02 02:58:20;;;;;;;3.67;2.40;;;14.40;99.90;;;13.75;100.00;101480.66;4188821;28;20499;-78
2023/10/02 03:00:25;;;;;;;8.13;2.92;;;14.40;99.90;;;13.73;100.00;101479.16;4188795;28;20056;-78
2023/10/02 03:02:26;;;;;;;6.25;3.00;;;14.40;99.90;;;13.70;100.00;101468.88;4188559;28;20029;-78
2023/10/02 03:04:29;;;;;;;5.90;2.85;;;14.30;99.90;;;13.70;100.00;101471.53;4188420;28;20071;-78
2023/10/02 03:06:32;;;;;;;8.32;3.33;;;14.30;99.90;;;13.72;100.00;101480.16;4198424;28;20044;-78
2023/10/02 03:08:38;;;;;;;4.13;2.63;;;14.40;99.90;;;13.76;100.00;101476.19;4187513;28;20054;-78
2023/10/02 03:10:40;;;;;;;4.05;2.75;;;14.40;99.90;;;13.73;100.00;101461.44;4188430;28;20480;-77
2023/10/02 03:12:45;;;;;;;5.30;2.60;;;14.40;99.90;;;13.75;100.00;101467.41;4187093;28;20443;-77
2023/10/02 03:14:47;;;;;;;6.03;2.58;;;14.30;99.90;;;13.75;100.00;101466.56;4187133;28;20130;-77
2023/10/02 03:16:48;;;;;;;4.65;2.78;;;14.40;99.90;;;13.75;100.00;101458.63;4187097;28;20033;-77
2023/10/02 03:18:49;;;;;;;5.07;2.47;;;14.40;99.90;;;13.76;100.00;101461.13;4188191;28;20437;-77
2023/10/02 03:20:50;;;;;;;6.20;3.13;;;14.40;99.90;;;13.74;100.00;101452.47;4186762;28;20028;-78
2023/10/02 03:22:55;;;;;;;5.47;2.83;;;14.40;99.90;;;13.71;100.00;101446.66;4187094;28;20427;-78
2023/10/02 03:25:24;;;;;;;3.15;2.30;;;14.40;99.90;;;13.73;100.00;101450.84;4186979;28;20028;-77
2023/10/02 03:27:19;;;;;;;4.97;2.10;;;14.40;99.90;;;13.69;100.00;101446.00;4188555;28;20428;-78
2023/10/02 03:29:22;;;;;;;5.60;3.38;;;14.40;99.90;;;13.66;100.00;101448.97;4188314;28;20488;-77
2023/10/02 03:31:34;;;;;;;5.85;2.92;;;14.30;99.90;;;13.59;100.00;101438.16;4188201;28;20028;-78
2023/10/02 03:33:35;;;;;;;4.35;2.92;;;14.30;99.90;;;13.56;100.00;101437.66;4187939;28;20020;-78
2023/10/02 03:35:39;;;;;;;5.85;3.40;;;14.20;99.90;;;13.54;100.00;101453.72;4196337;28;20037;-78
2023/10/02 03:37:43;;;;;;;7.47;3.00;;;14.20;99.90;;;13.52;100.00;101437.16;4188049;28;20021;-77
2023/10/02 03:40:20;;;;;;;9.05;3.20;;;14.20;99.90;;;13.50;100.00;101438.28;4188643;28;20105;-77
2023/10/02 03:42:13;;;;;;;4.53;2.30;;;14.20;99.90;;;13.50;100.00;101441.75;4195190;28;20111;-77
2023/10/02 03:44:14;;;;;;;4.95;2.65;;;14.10;99.90;;;13.48;100.00;101435.78;4196269;28;20029;-77
2023/10/02 03:46:22;;;;;;;5.22;2.38;;;14.10;99.90;;;13.46;100.00;101431.63;4203229;28;20396;-78
2023/10/02 03:48:23;;;;;;;4.03;2.55;;;14.10;99.90;;;13.45;100.00;101427.31;4203029;28;20036;-77
2023/10/02 03:50:24;;;;;;;3.67;2.08;;;14.10;99.90;;;13.42;100.00;101430.28;4203189;28;20028;-78
2023/10/02 03:52:25;;;;;;;4.93;2.00;;;14.10;99.90;;;13.41;100.00;101426.78;4216398;28;20028;-77
2023/10/02 03:54:29;;;;;;;4.25;2.47;;;14.10;99.90;;;13.39;100.00;101431.44;4188953;28;20025;-78
2023/10/02 03:56:42;;;;;;;3.13;2.17;;;14.10;99.90;;;13.35;100.00;101429.25;4187555;28;20029;-78
2023/10/02 03:58:43;;;;;;;2.83;1.90;;;14.00;99.90;;;13.30;100.00;101430.56;4187660;28;20025;-78
2023/10/02 04:00:44;;;;;;;4.03;2.30;;;14.00;99.90;;;13.27;100.00;101419.44;4187401;28;20032;-78
2023/10/02 04:02:48;;;;;;;4.47;2.40;;;13.90;99.90;;;13.26;100.00;101423.91;4202723;28;20030;-78
2023/10/02 04:04:49;;;;;;;4.13;2.20;;;13.90;99.90;;;13.21;100.00;101420.91;4186419;28;20025;-78
2023/10/02 04:06:55;;;;;;;3.08;1.80;;;13.90;99.90;;;13.26;100.00;101431.84;4187308;28;20033;-77
2023/10/02 04:09:09;;;;;;;4.22;2.17;;;13.90;99.90;;;13.23;100.00;101421.56;4186445;28;20049;-77
2023/10/02 04:11:12;;;;;;;6.32;2.40;;;13.90;99.90;;;13.22;100.00;101425.22;4191210;28;20032;-78
2023/10/02 04:13:14;;;;;;;3.85;2.47;;;13.90;99.90;;;13.23;100.00;101421.56;4204025;28;20032;-77
2023/10/02 04:15:15;;;;;;;3.33;2.42;;;13.80;99.90;;;13.18;100.00;101423.84;4204058;28;20025;-77
2023/10/02 04:19:17;;;;;;;5.28;2.85;;;13.80;99.90;;;13.13;100.00;101420.00;4203792;28;20079;-77
2023/10/02 04:21:25;;;;;;;6.32;2.75;;;13.80;99.90;;;13.10;100.00;101418.53;4196705;28;20025;-78
2023/10/02 04:23:25;;;;;;;5.60;2.90;;;13.80;99.90;;;13.11;100.00;101425.47;4186160;28;20547;-77
2023/10/02 04:25:35;;;;;;;8.85;2.53;;;13.80;99.90;;;13.08;100.00;101431.06;4187089;28;20055;-77
2023/10/02 04:30:05;;;;;;;4.82;2.50;;;13.70;99.90;;;13.05;100.00;101428.69;4186185;28;20040;-77
2023/10/02 04:32:18;;;;;;;4.82;3.25;;;13.70;99.90;;;13.03;100.00;101435.97;4187093;28;20063;-77
2023/10/02 04:34:29;;;;;;;4.50;2.67;;;13.70;99.90;;;13.02;100.00;101428.19;4187179;28;20033;-77
2023/10/02 04:36:34;;;;;;;3.70;2.30;;;13.70;99.90;;;13.00;100.00;101427.50;4189512;28;20059;-77
2023/10/02 04:38:49;;;;;;;5.30;3.20;;;13.70;99.90;;;13.02;100.00;101422.91;4186980;28;20033;-77
2023/10/02 04:40:51;;;;;;;2.97;1.77;;;13.70;99.90;;;12.98;100.00;101424.19;4187058;28;20048;-77
2023/10/02 04:42:57;;;;;;;2.17;1.48;;;13.70;99.90;;;12.99;100.00;101423.22;4186955;28;20025;-77
2023/10/02 04:44:58;;;;;;;3.13;1.92;;;13.70;99.90;;;12.97;100.00;101419.88;4200355;28;20051;-77
2023/10/02 04:47:00;;;;;;;2.47;1.80;;;13.60;99.90;;;12.97;100.00;101426.00;4187024;28;20037;-77
2023/10/02 04:49:01;;;;;;;2.55;1.98;;;13.60;99.90;;;12.93;100.00;101416.69;4185750;28;20056;-77
2023/10/02 04:51:08;;;;;;;9.38;2.03;;;13.60;99.90;;;12.94;100.00;101428.97;4186589;28;20021;-78
2023/10/02 04:55:24;;;;;;;3.80;2.08;;;13.60;99.90;;;12.97;100.00;101428.66;4191104;28;20037;-77
2023/10/02 04:57:25;;;;;;;10.35;2.10;;;13.60;99.90;;;13.01;100.00;101426.53;4201742;28;20098;-77
2023/10/02 04:59:51;;;;;;;5.78;1.88;;;13.70;99.90;;;13.02;100.00;101418.41;4189609;28;20043;-78
2023/10/02 05:02:17;;;;;;;9.40;2.53;;;13.70;99.90;;;13.04;100.00;101423.56;4185619;28;20095;-78
2023/10/02 05:04:08;;;;;;;10.25;4.03;;;13.70;99.90;;;13.03;100.00;101420.09;4186990;28;20025;-77
2023/10/02 05:06:16;;;;;;;9.63;3.78;;;13.70;99.90;;;13.09;100.00;101419.50;4185028;28;20493;-77
2023/10/02 05:08:20;;;;;;;8.98;3.13;;;13.80;99.90;;;13.13;100.00;101417.38;4186655;28;20025;-78
2023/10/02 05:10:23;;;;;;;8.48;2.83;;;13.80;99.90;;;13.13;100.00;101409.41;4185517;28;20064;-77
2023/10/02 05:12:23;;;;;;;8.75;2.95;;;13.80;99.90;;;13.04;100.00;101407.69;4186634;28;20075;-77
2023/10/02 05:14:28;;;;;;;9.05;3.50;;;13.70;99.90;;;13.01;100.00;101414.13;4184836;28;20029;-78
2023/10/02 05:16:33;;;;;;;9.23;2.90;;;13.70;99.90;;;12.95;100.00;101412.09;4195115;28;20044;-78
2023/10/02 05:18:34;;;;;;;6.82;2.33;;;13.60;99.90;;;12.87;100.00;101412.03;4186357;28;20017;-78
2023/10/02 05:20:38;;;;;;;7.75;2.80;;;13.60;99.90;;;12.84;100.00;101407.06;4185848;28;20105;-78
2023/10/02 05:22:40;;;;;;;7.38;3.03;;;13.60;99.90;;;12.77;100.00;101403.34;4185257;28;20071;-78
2023/10/02 05:24:41;;;;;;;9.80;2.75;;;13.50;99.90;;;12.74;100.00;101404.50;4191200;28;20120;-78
2023/10/02 05:26:44;;;;;;;4.03;2.33;;;13.40;99.90;;;12.74;100.00;101414.25;4192109;28;20070;-78
2023/10/02 05:28:45;;;;;;;10.30;3.22;;;13.40;99.90;;;12.73;100.00;101418.69;4186143;28;20025;-78
2023/10/02 05:30:46;;;;;;;7.82;2.58;;;13.40;99.90;;;12.71;100.00;101415.38;4186269;28;20021;-78
2023/10/02 05:32:47;;;;;;;5.93;2.67;;;13.40;99.90;;;12.68;100.00;101412.22;4186252;28;20035;-78
2023/10/02 05:35:04;;;;;;;9.00;3.15;;;13.40;99.90;;;12.68;100.00;101413.03;4191590;28;20025;-77
2023/10/02 05:37:11;;;;;;;8.70;2.58;;;13.40;99.90;;;12.66;100.00;101409.69;4201205;28;20028;-78
2023/10/02 05:39:28;;;;;;;7.43;2.97;;;13.30;99.90;;;12.64;100.00;101413.50;4188394;28;20083;-78
2023/10/02 05:41:41;;;;;;;5.93;2.55;;;13.30;99.90;;;12.59;100.00;101418.41;4186061;28;20062;-78
2023/10/02 05:43:55;;;;;;;6.53;2.50;;;13.30;99.90;;;12.59;100.00;101421.91;4198539;28;20052;-78
2023/10/02 05:45:56;;;;;;;5.53;2.83;;;13.30;99.90;;;12.57;100.00;101425.69;4191470;28;20021;-78
2023/10/02 05:47:57;;;;;;;7.32;2.78;;;13.30;99.90;;;12.57;100.00;101415.09;4185917;28;20479;-78
2023/10/02 05:49:58;;;;;;;3.72;2.58;;;13.30;99.90;;;12.57;100.00;101417.75;4185841;28;20025;-78
2023/10/02 05:52:00;;;;;;;4.13;2.90;;;13.20;99.90;;;12.62;100.00;101415.47;4185672;28;20017;-78
2023/10/02 05:54:01;;;;;;;3.88;2.47;;;13.20;99.90;;;12.67;100.00;101410.53;4185816;28;20496;-78
2023/10/02 05:56:12;;;;;;;2.95;2.65;;;13.30;99.90;;;12.70;100.00;101405.78;4189341;28;20510;-77
2023/10/02 05:58:27;;;;;;;4.25;2.50;;;13.30;99.90;;;12.76;100.00;101396.38;4184585;28;20099;-78
2023/10/02 06:00:35;;;;;;;1.95;1.55;;;13.40;99.90;;;12.80;100.00;101405.69;4184588;28;20029;-77
2023/10/02 06:02:36;;;;;;;6.43;2.35;;;13.40;99.90;;;12.79;100.00;101406.66;4185732;28;20535;-77
2023/10/02 06:04:37;;;;;;;5.68;2.40;;;13.40;99.90;;;12.75;100.00;101400.03;4189838;28;20016;-78
2023/10/02 06:06:40;;;;;;;4.80;2.17;;;13.40;99.90;;;12.71;100.00;101406.59;4194542;28;20128;-78
2023/10/02 06:08:55;;;;;;;5.32;2.22;;;13.40;99.90;;;12.66;100.00;101404.41;4185628;28;20053;-77
2023/10/02 06:11:08;;;;;;;4.55;2.40;;;13.30;99.90;;;12.65;100.00;101404.56;4184365;28;20025;-78
2023/10/02 06:13:09;;;;;;;4.85;2.30;;;13.30;99.90;;;12.64;100.00;101405.53;4185634;28;20036;-78
2023/10/02 06:15:43;;;;;;;3.58;1.88;;;13.30;99.90;;;12.65;100.00;101402.75;4192555;28;20033;-78
2023/10/02 06:17:32;;;;;;;3.33;1.98;;;13.30;99.90;;;12.63;100.00;101401.25;4186271;28;20036;-77
2023/10/02 06:19:42;;;;;;;4.78;2.00;;;13.30;99.90;;;12.67;100.00;101408.72;4185512;28;20080;-77
2023/10/02 06:21:45;;;;;;;7.72;2.10;;;13.40;99.90;;;12.68;100.00;101417.50;4185244;28;20029;-78
2023/10/02 06:23:46;;;;;;;3.45;1.75;;;13.30;99.90;;;12.68;100.00;101414.84;4185451;28;20480;-78
2023/10/02 06:25:47;;;;;;;4.00;1.85;;;13.40;99.90;;;12.70;100.00;101418.16;4195240;28;20029;-78
2023/10/02 06:27:48;;;;;;;2.67;1.50;;;13.40;99.90;;;12.70;100.00;101412.88;4185477;28;20025;-78
2023/10/02 06:29:49;;;;;;;4.07;1.83;;;13.40;99.90;;;12.73;100.00;101412.56;4185479;28;20029;-78
2023/10/02 06:31:58;;;;;;;2.42;1.63;;;13.40;99.90;;;12.77;100.00;101416.59;4184780;28;20111;-77
2023/10/02 06:33:59;;;;;;;3.05;1.67;;;13.40;99.90;;;12.80;100.00;101410.16;4189716;28;20029;-78
2023/10/02 06:36:06;;;;;;;3.15;2.00;;;13.40;99.90;;;12.84;100.00;101419.47;4194024;28;20099;-78
2023/10/02 06:38:15;;;;;;;2.22;1.67;;;13.50;99.90;;;12.82;100.00;101406.34;4185340;28;20055;-78
2023/10/02 06:40:20;;;;;;;4.50;2.00;;;13.50;99.90;;;12.88;100.00;101415.50;4183793;28;20049;-78
2023/10/02 06:42:22;;;;;;;2.50;1.85;;;13.50;99.90;;;12.92;100.00;101417.69;4200600;28;20028;-78
2023/10/02 06:44:23;;;;;;;3.45;1.50;;;13.60;99.90;;;12.93;100.00;101418.53;4186284;28;20021;-78
2023/10/02 06:46:23;;;;;;;3.03;1.60;;;13.60;99.90;;;12.94;100.00;101406.94;4200581;28;20503;-78
2023/10/02 06:48:24;;;;;;;1.88;1.50;;;13.60;99.90;;;13.00;100.00;101409.78;4201626;28;20493;-78
2023/10/02 06:50:30;;;;;;;4.13;1.55;;;13.60;99.90;;;13.07;100.00;101408.19;4200546;28;20016;-78
2023/10/02 06:52:33;;;;;;;3.25;1.63;;;13.70;99.90;;;13.10;100.00;101415.88;4201817;28;20025;-78
2023/10/02 06:54:42;;;;;;;3.47;1.58;;;13.70;99.90;;;13.17;100.00;101413.44;4200353;28;20024;-78
2023/10/02 06:56:44;;;;;;;3.47;1.58;;;13.80;99.90;;;13.22;100.00;101406.66;4199600;28;20024;-78
2023/10/02 06:58:54;;;;;;;2.60;1.65;;;13.80;99.90;;;13.27;100.00;101404.38;4185176;28;20029;-78
2023/10/02 07:00:55;;;;;;;4.88;1.65;;;13.90;99.90;;;13.34;100.00;101407.22;4188571;28;20040;-78
2023/10/02 07:03:03;;;;;;;2.85;1.40;;;13.90;99.90;;;13.41;100.00;101412.75;4200426;28;20025;-78
2023/10/02 07:05:10;;;;;;;3.42;1.73;;;14.00;99.90;;;13.44;100.00;101405.28;4195275;28;20025;-78
2023/10/02 07:07:12;;;;;;;2.30;1.33;;;14.00;99.90;;;13.50;100.00;101403.84;4184780;28;20112;-78
2023/10/02 07:09:14;;;;;;;4.28;1.77;;;14.10;99.90;;;13.56;100.00;101396.06;4185073;28;20404;-78
2023/10/02 07:11:18;;;;;;;2.58;1.30;;;14.20;99.90;;;13.61;100.00;101401.72;4185121;28;20032;-78
2023/10/02 07:13:23;;;;;;;2.55;1.40;;;14.20;99.90;;;13.68;100.00;101393.94;4184049;28;20435;-78
2023/10/02 07:15:26;;;;;;;3.15;1.52;;;14.30;99.90;;;13.73;100.00;101397.81;4192777;28;20117;-78
2023/10/02 07:17:27;;;;;;;2.30;1.70;;;14.30;99.90;;;13.77;100.00;101392.97;4186737;28;20448;-78
2023/10/02 07:19:38;;;;;;;2.15;1.60;;;14.40;99.90;;;13.84;100.00;101397.50;4184898;28;20029;-78
2023/10/02 07:21:40;;;;;;;3.75;1.77;;;14.40;99.90;;;13.88;100.00;101403.31;4184587;28;20365;-78
2023/10/02 07:23:43;;;;;;;3.50;1.80;;;14.50;99.90;;;13.92;100.00;101399.34;4183760;28;20025;-78
2023/10/02 07:25:50;;;;;;;2.75;1.92;;;14.50;99.90;;;13.97;100.00;101405.00;4194082;28;20032;-78
2023/10/02 07:27:52;;;;;;;2.75;1.98;;;14.50;99.90;;;14.01;100.00;101400.22;4183901;28;20056;-78
2023/10/02 07:30:04;;;;;;;3.75;2.38;;;14.60;99.90;;;14.04;100.00;101395.38;4183685;28;20041;-79
2023/10/02 07:32:06;;;;;;;3.35;2.92;;;14.60;99.90;;;14.10;100.00;101397.38;4167085;28;20029;-79
2023/10/02 07:34:08;;;;;;;4.00;2.28;;;14.70;99.90;;;14.12;100.00;101403.38;4186225;28;20025;-78
2023/10/02 07:36:14;;;;;;;3.33;2.80;;;14.70;99.90;;;14.15;100.00;101403.06;4191550;28;20056;-79
2023/10/02 07:38:14;;;;;;;3.25;2.42;;;14.80;99.90;;;14.18;100.00;101400.06;4183468;28;20074;-79
2023/10/02 07:40:15;;;;;;;3.25;2.13;;;14.80;99.90;;;14.23;100.00;101396.91;4184443;28;20508;-79
2023/10/02 07:42:18;;;;;;;2.80;1.92;;;14.80;99.90;;;14.26;100.00;101389.47;4185003;28;20017;-79
2023/10/02 07:44:19;;;;;;;2.78;2.33;;;14.90;99.90;;;14.30;100.00;101388.16;4197039;28;20020;-79
2023/10/02 07:46:21;;;;;;;3.47;2.42;;;14.90;99.90;;;14.35;100.00;101385.88;4193815;28;20031;-79
2023/10/02 07:48:25;;;;;;;3.88;2.38;;;15.00;99.90;;;14.39;100.00;101389.03;4187871;28;20029;-79
2023/10/02 07:50:33;;;;;;;2.58;2.13;;;15.10;99.90;;;14.42;100.00;101387.84;4202862;28;20112;-79
2023/10/02 07:52:38;;;;;;;2.10;1.90;;;15.10;99.90;;;14.47;100.00;101385.53;4186757;28;20040;-78
2023/10/02 07:54:45;;;;;;;2.10;1.77;;;15.10;99.90;;;14.53;100.00;101385.69;4188942;28;20087;-79
2023/10/02 07:56:47;;;;;;;3.88;2.53;;;15.20;99.90;;;14.61;100.00;101387.50;4187794;28;20044;-78
2023/10/02 07:58:54;;;;;;;3.65;2.58;;;15.30;99.90;;;14.67;100.00;101376.22;4187783;28;20028;-78
2023/10/02 08:00:55;;;;;;;4.47;3.10;;;15.40;99.90;;;14.77;100.00;101382.19;4187579;28;20028;-79
2023/10/02 08:03:00;;;;;;;3.45;2.35;;;15.40;99.90;;;14.93;100.00;101382.19;4186339;28;20072;-79
2023/10/02 08:05:04;;;;;;;4.93;2.55;;;15.60;99.90;;;15.03;100.00;101377.50;4191449;28;20110;-78
2023/10/02 08:07:07;;;;;;;2.60;2.10;;;15.70;99.90;;;15.18;100.00;101385.59;4194433;28;20033;-79
2023/10/02 08:09:35;;;;;;;2.37;1.80;;;15.80;99.90;;;15.29;100.00;101377.28;4187588;28;20032;-79
2023/10/02 08:11:38;;;;;;;2.30;1.80;;;15.90;99.90;;;15.39;100.00;101373.41;4193550;28;20116;-77
2023/10/02 08:13:48;;;;;;;4.30;2.25;;;16.10;99.90;;;15.56;100.00;101389.34;4202950;28;20097;-80
2023/10/02 08:15:50;;;;;;;4.07;2.97;;;16.20;99.90;;;15.66;100.00;101379.31;4202100;28;20032;-79
2023/10/02 08:20:15;;;;;;;3.53;2.10;;;16.40;99.90;;;15.87;100.00;101382.22;4186195;28;20535;-78
2023/10/02 08:22:19;;;;;;;2.33;1.80;;;16.50;99.90;;;15.98;100.00;101381.81;4187008;28;20017;-79
2023/10/02 08:24:20;;;;;;;2.35;2.00;;;16.60;99.90;;;16.11;100.00;101378.56;4187358;28;20017;-79
2023/10/02 08:26:21;;;;;;;3.03;2.30;;;16.70;99.90;;;16.24;100.00;101387.66;4210138;28;20510;-78
2023/10/02 08:28:23;;;;;;;3.20;2.17;;;16.90;99.90;;;16.37;100.00;101374.56;4186049;28;20029;-78
2023/10/02 08:30:31;;;;;;;2.92;2.08;;;17.00;99.90;;;16.54;100.00;101375.31;4187030;28;20021;-79
2023/10/02 08:32:33;;;;;;;2.00;1.45;;;17.10;99.90;;;16.64;100.00;101377.69;4186067;28;20029;-79
2023/10/02 08:34:35;;;;;;;3.88;3.10;;;17.30;99.90;;;16.72;100.00;101372.31;4187885;28;20476;-79
2023/10/02 08:36:39;;;;;;;3.78;2.40;;;17.30;99.90;;;16.86;100.00;101367.00;4190852;28;20400;-79
2023/10/02 08:38:40;;;;;;;5.90;2.40;;;17.50;99.90;;;16.98;100.00;101362.06;4186893;28;20053;-79
2023/10/02 08:40:41;;;;;;;4.45;2.97;;;17.60;99.90;;;17.08;100.00;101357.28;4187118;28;20420;-78
2023/10/02 08:42:46;;;;;;;3.63;2.35;;;17.70;99.90;;;17.19;100.00;101353.31;4187053;28;20029;-79
2023/10/02 08:44:49;;;;;;;4.05;2.28;;;17.80;99.90;;;17.31;100.00;101350.03;4215007;28;20032;-79
2023/10/02 08:46:50;;;;;;;4.47;2.70;;;17.90;99.90;;;17.39;100.00;101349.91;4186963;28;20017;-79